Date,TemperatureHighF,TemperatureAvgF,TemperatureLowF,DewpointHighF,DewpointAvgF,DewpointLowF,HumidityHigh,HumidityAvg,HumidityLow,PressureMaxIn,PressureMinIn,WindSpeedMaxMPH,WindSpeedAvgMPH,GustSpeedMaxMPH,PrecipitationSumIn
2013-8-1,61.5,59.2,56.9,60.0,57.6,56.0,97,94,90,30.08,30.03,2,0,3,0.01
2013-8-2,59.5,57.7,56.5,58.0,56.7,55.0,97,96,93,30.15,30.08,0,0,3,0.07
2013-8-3,70.3,63.4,56.4,63.0,59.5,56.0,98,87,73,30.15,30.06,4,0,6,0.00
2013-8-4,78.3,68.4,60.5,66.0,62.3,59.0,94,81,65,30.07,29.93,3,0,7,0.00
2013-8-5,81.6,68.3,57.3,65.0,60.2,57.0,97,78,49,30.01,29.92,5,0,7,0.00
2013-8-6,81.9,67.6,54.7,63.0,57.4,53.0,95,73,45,30.01,29.91,3,0,8,0.00
2013-8-7,82.3,67.2,53.7,59.0,56.0,52.0,94,71,41,30.01,29.93,4,0,7,0.00
2013-8-8,79.2,65.9,54.4,64.0,58.2,53.0,96,78,54,30.04,29.94,3,0,8,0.00
2013-8-9,79.1,67.6,56.6,65.0,60.0,56.0,97,78,54,29.98,29.82,3,0,6,0.00
2013-8-10,77.6,68.4,62.3,68.0,64.3,60.0,98,87,69,30.02,29.88,5,0,10,0.32
2013-8-11,66.7,62.8,59.2,64.0,61.2,58.0,98,94,83,30.06,29.99,1,0,6,0.23
2013-8-12,74.9,64.5,57.8,64.0,60.3,57.0,98,87,63,30.08,29.99,5,0,6,0.00
2013-8-13,77.6,66.5,57.4,64.0,59.2,56.0,94,79,58,30.11,29.94,3,0,5,0.00
2013-8-14,79.4,65.6,56.6,67.0,59.8,55.0,97,82,57,29.98,29.90,4,0,7,0.00
2013-8-15,68.6,64.8,62.0,66.0,62.6,60.0,98,93,85,30.00,29.94,5,1,13,0.19
2013-8-16,79.9,67.6,58.7,66.0,61.7,58.0,98,83,60,30.02,29.94,5,0,8,0.00
2013-8-17,71.9,64.3,57.5,64.0,59.5,57.0,97,85,69,30.08,30.02,3,0,4,0.00
2013-8-18,76.3,64.8,57.4,63.0,59.4,57.0,98,84,57,30.13,30.07,6,0,6,0.00
2013-8-19,73.3,62.9,55.2,63.0,57.9,54.0,97,84,64,30.12,30.05,1,0,5,0.00
2013-8-20,75.0,62.8,54.2,59.0,55.0,52.0,93,77,56,30.18,30.07,5,0,7,0.00
2013-8-21,79.3,64.5,52.1,64.0,56.7,51.0,96,78,53,30.11,29.94,5,0,9,0.00
2013-8-22,81.8,67.6,56.7,66.0,59.6,54.0,94,77,49,29.96,29.80,4,0,7,0.00
2013-8-23,70.1,63.7,59.7,62.0,59.4,58.0,96,86,73,29.89,29.84,2,0,7,0.00
2013-8-24,67.6,61.0,55.6,61.0,57.7,54.0,97,89,75,29.93,29.86,2,0,5,0.00
2013-8-25,72.7,61.1,51.4,60.0,56.1,51.0,99,85,62,29.96,29.86,4,0,5,0.04
2013-8-26,73.3,63.2,57.0,65.0,59.0,56.0,97,87,64,29.99,29.84,5,1,8,0.12
2013-8-27,74.4,64.4,58.3,66.0,61.0,58.0,98,89,64,29.98,29.80,4,1,9,0.05
2013-8-28,73.7,65.9,61.2,67.0,63.5,60.0,98,92,77,29.91,29.83,3,0,8,0.69
2013-8-29,66.2,63.8,62.2,65.0,62.8,61.0,98,96,94,30.03,29.90,8,1,10,2.43
2013-8-30,68.3,61.7,56.9,64.0,60.2,56.0,98,95,78,30.18,30.03,2,0,10,0.51
2013-8-31,78.6,64.1,53.4,66.0,58.6,52.0,95,83,59,30.11,29.85,7,1,11,0.00